sensor_id;sensor_type;location;lat;lon;timestamp;pressure;altitude;pressure_sealevel;temperature;humidity
21779;BME280;11050;52.222;20.916;2023-03-20T00:02:04;100090.47;;;8.59;64.58
21779;BME280;11050;52.222;20.916;2023-03-20T00:04:31;100093.13;;;8.54;64.62
21779;BME280;11050;52.222;20.916;2023-03-20T00:06:57;100092.16;;;8.48;64.81
21779;BME280;11050;52.222;20.916;2023-03-20T00:09:23;100093.97;;;8.43;65.19
21779;BME280;11050;52.222;20.916;2023-03-20T00:11:52;100087.84;;;8.36;65.81
21779;BME280;11050;52.222;20.916;2023-03-20T00:14:22;100083.09;;;8.31;65.97
21779;BME280;11050;52.222;20.916;2023-03-20T00:16:50;100090.13;;;8.27;66.46
21779;BME280;11050;52.222;20.916;2023-03-20T00:19:21;100089.19;;;8.22;66.51
21779;BME280;11050;52.222;20.916;2023-03-20T00:21:49;100088.25;;;8.16;66.96
21779;BME280;11050;52.222;20.916;2023-03-20T00:24:15;100095.50;;;8.11;66.99
21779;BME280;11050;52.222;20.916;2023-03-20T00:26:44;100089.69;;;8.07;67.32
21779;BME280;11050;52.222;20.916;2023-03-20T00:29:30;100088.16;;;8.00;67.57
21779;BME280;11050;52.222;20.916;2023-03-20T00:31:57;100082.59;;;7.95;67.67
21779;BME280;11050;52.222;20.916;2023-03-20T00:34:27;100080.34;;;7.92;68.00
21779;BME280;11050;52.222;20.916;2023-03-20T00:36:57;100080.81;;;7.89;68.44
21779;BME280;11050;52.222;20.916;2023-03-20T00:39:23;100073.94;;;7.86;68.43
21779;BME280;11050;52.222;20.916;2023-03-20T00:41:59;100075.50;;;7.82;68.85
21779;BME280;11050;52.222;20.916;2023-03-20T00:44:47;100069.69;;;7.79;69.21
21779;BME280;11050;52.222;20.916;2023-03-20T00:47:22;100081.69;;;7.78;69.25
21779;BME280;11050;52.222;20.916;2023-03-20T00:49:51;100055.78;;;7.68;70.34
21779;BME280;11050;52.222;20.916;2023-03-20T00:52:20;100073.38;;;7.73;69.71
21779;BME280;11050;52.222;20.916;2023-03-20T00:54:46;100074.94;;;7.68;70.02
21779;BME280;11050;52.222;20.916;2023-03-20T01:00:33;100067.19;;;7.65;71.21
21779;BME280;11050;52.222;20.916;2023-03-20T01:02:33;100067.44;;;7.64;71.10
21779;BME280;11050;52.222;20.916;2023-03-20T01:05:00;100059.47;;;7.62;71.10
21779;BME280;11050;52.222;20.916;2023-03-20T01:07:26;100062.91;;;7.58;71.10
21779;BME280;11050;52.222;20.916;2023-03-20T01:09:52;100065.31;;;7.54;71.33
21779;BME280;11050;52.222;20.916;2023-03-20T01:12:18;100053.19;;;7.50;72.48
21779;BME280;11050;52.222;20.916;2023-03-20T01:14:49;100048.91;;;7.43;72.64
21779;BME280;11050;52.222;20.916;2023-03-20T01:17:20;100058.19;;;7.42;72.56
21779;BME280;11050;52.222;20.916;2023-03-20T01:19:47;100054.03;;;7.39;73.16
21779;BME280;11050;52.222;20.916;2023-03-20T01:22:14;100054.53;;;7.36;72.19
21779;BME280;11050;52.222;20.916;2023-03-20T01:24:40;100059.41;;;7.34;73.35
21779;BME280;11050;52.222;20.916;2023-03-20T01:27:16;100051.91;;;7.30;73.01
21779;BME280;11050;52.222;20.916;2023-03-20T01:29:42;100053.00;;;7.29;73.79
21779;BME280;11050;52.222;20.916;2023-03-20T01:32:17;100045.50;;;7.24;74.79
21779;BME280;11050;52.222;20.916;2023-03-20T01:34:43;100053.09;;;7.22;74.23
21779;BME280;11050;52.222;20.916;2023-03-20T01:37:16;100050.00;;;7.19;74.78
21779;BME280;11050;52.222;20.916;2023-03-20T01:39:42;100050.97;;;7.13;75.51
21779;BME280;11050;52.222;20.916;2023-03-20T01:42:13;100055.00;;;7.10;75.19
21779;BME280;11050;52.222;20.916;2023-03-20T01:44:40;100055.47;;;7.07;75.63
21779;BME280;11050;52.222;20.916;2023-03-20T01:47:17;100046.91;;;7.04;75.79
21779;BME280;11050;52.222;20.916;2023-03-20T01:50:30;100043.38;;;7.03;75.86
21779;BME280;11050;52.222;20.916;2023-03-20T01:53:16;100051.56;;;7.03;75.55
21779;BME280;11050;52.222;20.916;2023-03-20T01:55:45;100033.75;;;7.01;76.28
21779;BME280;11050;52.222;20.916;2023-03-20T01:58:21;100036.72;;;6.99;76.75
21779;BME280;11050;52.222;20.916;2023-03-20T02:00:48;100033.41;;;6.97;76.26
21779;BME280;11050;52.222;20.916;2023-03-20T02:03:16;100038.63;;;6.99;76.21
21779;BME280;11050;52.222;20.916;2023-03-20T02:05:44;100034.19;;;6.98;76.92
21779;BME280;11050;52.222;20.916;2023-03-20T02:08:24;100031.72;;;6.96;76.56
21779;BME280;11050;52.222;20.916;2023-03-20T02:10:52;100028.53;;;6.99;76.71
21779;BME280;11050;52.222;20.916;2023-03-20T02:13:20;100032.06;;;7.00;76.29
21779;BME280;11050;52.222;20.916;2023-03-20T02:16:05;100032.06;;;7.00;75.63
21779;BME280;11050;52.222;20.916;2023-03-20T02:18:33;100032.91;;;7.00;75.48
21779;BME280;11050;52.222;20.916;2023-03-20T02:21:39;100024.13;;;6.98;76.05
21779;BME280;11050;52.222;20.916;2023-03-20T02:30:24;100026.13;;;6.91;76.43
21779;BME280;11050;52.222;20.916;2023-03-20T02:44:45;100023.66;;;6.90;76.13
21779;BME280;11050;52.222;20.916;2023-03-20T02:47:50;100018.44;;;6.88;76.04
21779;BME280;11050;52.222;20.916;2023-03-20T02:51:01;100014.50;;;6.84;76.73
21779;BME280;11050;52.222;20.916;2023-03-20T02:53:34;100021.38;;;6.87;76.70
21779;BME280;11050;52.222;20.916;2023-03-20T02:56:39;100016.66;;;6.82;76.70
21779;BME280;11050;52.222;20.916;2023-03-20T02:59:43;100020.91;;;6.78;76.57
21779;BME280;11050;52.222;20.916;2023-03-20T03:02:21;100015.91;;;6.75;77.03
21779;BME280;11050;52.222;20.916;2023-03-20T03:04:57;100019.97;;;6.72;77.17
21779;BME280;11050;52.222;20.916;2023-03-20T03:07:28;100022.94;;;6.71;77.69
21779;BME280;11050;52.222;20.916;2023-03-20T03:10:02;100014.50;;;6.72;78.07
21779;BME280;11050;52.222;20.916;2023-03-20T03:12:43;100020.19;;;6.71;78.48
21779;BME280;11050;52.222;20.916;2023-03-20T03:15:39;100011.16;;;6.70;78.81
21779;BME280;11050;52.222;20.916;2023-03-20T03:18:14;100016.28;;;6.67;77.77
21779;BME280;11050;52.222;20.916;2023-03-20T03:20:44;100011.88;;;6.66;77.93
21779;BME280;11050;52.222;20.916;2023-03-20T03:23:25;100014.25;;;6.62;79.20
21779;BME280;11050;52.222;20.916;2023-03-20T03:25:54;100013.03;;;6.58;79.14
21779;BME280;11050;52.222;20.916;2023-03-20T03:28:42;100013.03;;;6.58;79.46
21779;BME280;11050;52.222;20.916;2023-03-20T03:31:14;100013.63;;;6.60;79.49
21779;BME280;11050;52.222;20.916;2023-03-20T03:33:45;100016.72;;;6.64;79.75
21779;BME280;11050;52.222;20.916;2023-03-20T03:41:39;100003.28;;;6.51;80.63
21779;BME280;11050;52.222;20.916;2023-03-20T03:49:31;100004.09;;;6.40;81.85
21779;BME280;11050;52.222;20.916;2023-03-20T03:52:11;100011.44;;;6.39;81.79
21779;BME280;11050;52.222;20.916;2023-03-20T03:54:44;99993.44;;;6.38;82.25
21779;BME280;11050;52.222;20.916;2023-03-20T03:57:15;100008.97;;;6.38;81.76
21779;BME280;11050;52.222;20.916;2023-03-20T03:59:49;99997.44;;;6.36;81.73
21779;BME280;11050;52.222;20.916;2023-03-20T04:02:17;99997.22;;;6.37;82.21
21779;BME280;11050;52.222;20.916;2023-03-20T04:04:50;99996.41;;;6.37;82.08
21779;BME280;11050;52.222;20.916;2023-03-20T04:07:17;99991.53;;;6.39;82.31
21779;BME280;11050;52.222;20.916;2023-03-20T04:09:43;99991.53;;;6.39;81.68
21779;BME280;11050;52.222;20.916;2023-03-20T04:12:38;99982.50;;;6.38;81.29
21779;BME280;11050;52.222;20.916;2023-03-20T04:15:06;100001.63;;;6.38;81.58
21779;BME280;11050;52.222;20.916;2023-03-20T04:17:32;99999.13;;;6.37;81.25
21779;BME280;11050;52.222;20.916;2023-03-20T04:19:59;99991.38;;;6.34;81.68
21779;BME280;11050;52.222;20.916;2023-03-20T04:22:25;99996.97;;;6.27;82.01
21779;BME280;11050;52.222;20.916;2023-03-20T04:24:51;99998.84;;;6.27;81.43
21779;BME280;11050;52.222;20.916;2023-03-20T04:27:18;100004.78;;;6.24;82.12
21779;BME280;11050;52.222;20.916;2023-03-20T04:29:44;99998.72;;;6.22;81.90
21779;BME280;11050;52.222;20.916;2023-03-20T04:32:10;100004.88;;;6.17;83.01
21779;BME280;11050;52.222;20.916;2023-03-20T04:34:36;100006.41;;;6.13;83.48
21779;BME280;11050;52.222;20.916;2023-03-20T04:37:02;100006.63;;;6.12;82.83
21779;BME280;11050;52.222;20.916;2023-03-20T04:39:29;99996.81;;;6.11;82.45
21779;BME280;11050;52.222;20.916;2023-03-20T04:41:56;99994.53;;;6.08;83.39
21779;BME280;11050;52.222;20.916;2023-03-20T04:44:21;99992.16;;;6.11;82.77
21779;BME280;11050;52.222;20.916;2023-03-20T04:46:47;99994.88;;;6.11;83.10
21779;BME280;11050;52.222;20.916;2023-03-20T04:49:13;99996.22;;;6.09;83.98
21779;BME280;11050;52.222;20.916;2023-03-20T04:51:38;100001.19;;;6.12;83.18
21779;BME280;11050;52.222;20.916;2023-03-20T04:54:05;100004.75;;;6.12;83.87
21779;BME280;11050;52.222;20.916;2023-03-20T04:56:30;100001.78;;;6.14;83.69
21779;BME280;11050;52.222;20.916;2023-03-20T04:58:56;100005.34;;;6.14;83.42
21779;BME280;11050;52.222;20.916;2023-03-20T05:01:22;100012.69;;;6.14;83.00
21779;BME280;11050;52.222;20.916;2023-03-20T05:03:48;100008.91;;;6.15;83.36
21779;BME280;11050;52.222;20.916;2023-03-20T05:06:14;100010.34;;;6.17;83.31
21779;BME280;11050;52.222;20.916;2023-03-20T05:08:39;100016.16;;;6.21;82.80
21779;BME280;11050;52.222;20.916;2023-03-20T05:11:05;100007.38;;;6.19;82.91
21779;BME280;11050;52.222;20.916;2023-03-20T05:13:32;100008.44;;;6.18;83.15
21779;BME280;11050;52.222;20.916;2023-03-20T05:15:58;100008.81;;;6.21;83.70
21779;BME280;11050;52.222;20.916;2023-03-20T05:18:24;100015.91;;;6.22;83.33
21779;BME280;11050;52.222;20.916;2023-03-20T05:20:50;100010.25;;;6.24;83.31
21779;BME280;11050;52.222;20.916;2023-03-20T05:23:15;100001.34;;;6.28;84.19
21779;BME280;11050;52.222;20.916;2023-03-20T05:25:41;100005.03;;;6.34;83.78
21779;BME280;11050;52.222;20.916;2023-03-20T05:28:07;100018.59;;;6.40;83.99
21779;BME280;11050;52.222;20.916;2023-03-20T05:30:33;100013.16;;;6.52;83.32
21779;BME280;11050;52.222;20.916;2023-03-20T05:32:59;100020.19;;;6.59;82.68
21779;BME280;11050;52.222;20.916;2023-03-20T05:35:24;100020.91;;;6.66;81.93
21779;BME280;11050;52.222;20.916;2023-03-20T05:37:50;100024.56;;;6.72;81.64
21779;BME280;11050;52.222;20.916;2023-03-20T05:40:16;100019.97;;;6.72;81.18
21779;BME280;11050;52.222;20.916;2023-03-20T05:42:44;100025.53;;;6.78;81.95
21779;BME280;11050;52.222;20.916;2023-03-20T05:45:10;100013.19;;;6.87;81.33
21779;BME280;11050;52.222;20.916;2023-03-20T05:47:36;100016.41;;;6.95;80.60
21779;BME280;11050;52.222;20.916;2023-03-20T05:50:03;100012.25;;;7.04;80.08
21779;BME280;11050;52.222;20.916;2023-03-20T05:52:29;100009.50;;;7.16;80.18
21779;BME280;11050;52.222;20.916;2023-03-20T05:54:54;100024.34;;;7.31;80.58
21779;BME280;11050;52.222;20.916;2023-03-20T05:57:24;100019.69;;;7.43;79.39
21779;BME280;11050;52.222;20.916;2023-03-20T05:59:49;100016.94;;;7.55;78.44
21779;BME280;11050;52.222;20.916;2023-03-20T06:02:15;100019.06;;;7.64;78.16
21779;BME280;11050;52.222;20.916;2023-03-20T06:04:41;100010.94;;;7.69;77.14
21779;BME280;11050;52.222;20.916;2023-03-20T06:07:07;100017.13;;;7.77;76.44
21779;BME280;11050;52.222;20.916;2023-03-20T06:09:33;100013.97;;;7.85;76.11
21779;BME280;11050;52.222;20.916;2023-03-20T06:11:59;100019.91;;;7.93;75.14
21779;BME280;11050;52.222;20.916;2023-03-20T06:14:25;100024.00;;;8.07;74.35
21779;BME280;11050;52.222;20.916;2023-03-20T06:16:50;100018.97;;;8.16;73.92
21779;BME280;11050;52.222;20.916;2023-03-20T06:19:19;100024.06;;;8.24;73.81
21779;BME280;11050;52.222;20.916;2023-03-20T06:21:47;100019.06;;;8.32;72.74
21779;BME280;11050;52.222;20.916;2023-03-20T06:24:13;100025.53;;;8.43;72.07
21779;BME280;11050;52.222;20.916;2023-03-20T06:26:39;100031.28;;;8.58;71.74
21779;BME280;11050;52.222;20.916;2023-03-20T06:29:04;100024.41;;;8.72;71.22
21779;BME280;11050;52.222;20.916;2023-03-20T06:31:30;100028.13;;;8.83;70.99
21779;BME280;11050;52.222;20.916;2023-03-20T06:33:56;100028.47;;;9.03;70.64
21779;BME280;11050;52.222;20.916;2023-03-20T06:36:23;100029.88;;;9.22;69.56
21779;BME280;11050;52.222;20.916;2023-03-20T06:38:49;100034.84;;;9.46;69.22
21779;BME280;11050;52.222;20.916;2023-03-20T06:41:15;100034.13;;;9.73;67.54
21779;BME280;11050;52.222;20.916;2023-03-20T06:43:41;100043.44;;;9.93;67.36
21779;BME280;11050;52.222;20.916;2023-03-20T06:46:08;100037.13;;;10.14;65.73
21779;BME280;11050;52.222;20.916;2023-03-20T06:48:33;100045.91;;;10.38;65.27
21779;BME280;11050;52.222;20.916;2023-03-20T06:50:59;100046.19;;;10.63;63.73
21779;BME280;11050;52.222;20.916;2023-03-20T06:53:25;100042.84;;;10.93;62.63
21779;BME280;11050;52.222;20.916;2023-03-20T06:55:52;100042.44;;;11.11;61.80
21779;BME280;11050;52.222;20.916;2023-03-20T06:58:19;100040.41;;;11.33;60.66
21779;BME280;11050;52.222;20.916;2023-03-20T07:00:45;100045.25;;;11.58;60.07
21779;BME280;11050;52.222;20.916;2023-03-20T07:03:12;100035.22;;;11.83;59.20
21779;BME280;11050;52.222;20.916;2023-03-20T07:05:38;100048.25;;;12.08;58.33
21779;BME280;11050;52.222;20.916;2023-03-20T07:08:05;100043.09;;;12.26;58.34
21779;BME280;11050;52.222;20.916;2023-03-20T07:10:32;100042.31;;;12.46;57.55
21779;BME280;11050;52.222;20.916;2023-03-20T07:12:59;100039.31;;;12.63;56.50
21779;BME280;11050;52.222;20.916;2023-03-20T07:15:26;100046.75;;;12.77;56.13
21779;BME280;11050;52.222;20.916;2023-03-20T07:17:54;100044.28;;;12.96;55.46
21779;BME280;11050;52.222;20.916;2023-03-20T07:20:19;100044.59;;;13.09;54.97
21779;BME280;11050;52.222;20.916;2023-03-20T07:22:47;100041.28;;;13.17;55.52
21779;BME280;11050;52.222;20.916;2023-03-20T07:25:13;100041.00;;;13.19;54.87
21779;BME280;11050;52.222;20.916;2023-03-20T07:27:39;100050.63;;;13.31;54.97
21779;BME280;11050;52.222;20.916;2023-03-20T07:30:06;100048.41;;;13.49;54.53
21779;BME280;11050;52.222;20.916;2023-03-20T07:32:33;100049.19;;;13.69;53.44
21779;BME280;11050;52.222;20.916;2023-03-20T07:34:59;100052.19;;;13.73;53.07
21779;BME280;11050;52.222;20.916;2023-03-20T07:37:25;100051.94;;;13.74;53.50
21779;BME280;11050;52.222;20.916;2023-03-20T07:39:51;100054.41;;;13.81;53.21
21779;BME280;11050;52.222;20.916;2023-03-20T07:42:17;100047.78;;;13.82;53.05
21779;BME280;11050;52.222;20.916;2023-03-20T07:44:42;100058.03;;;13.76;54.09
21779;BME280;11050;52.222;20.916;2023-03-20T07:47:08;100058.56;;;13.63;54.16
21779;BME280;11050;52.222;20.916;2023-03-20T07:49:34;100046.75;;;13.53;54.80
21779;BME280;11050;52.222;20.916;2023-03-20T07:52:00;100052.81;;;13.45;55.78
21779;BME280;11050;52.222;20.916;2023-03-20T07:54:26;100051.72;;;13.41;55.63
21779;BME280;11050;52.222;20.916;2023-03-20T07:56:52;100047.31;;;13.29;55.42
21779;BME280;11050;52.222;20.916;2023-03-20T07:59:18;100045.97;;;13.22;55.56
21779;BME280;11050;52.222;20.916;2023-03-20T08:01:44;100046.25;;;13.15;55.80
21779;BME280;11050;52.222;20.916;2023-03-20T08:04:12;100045.38;;;13.00;56.81
21779;BME280;11050;52.222;20.916;2023-03-20T08:06:38;100045.38;;;12.90;56.81
21779;BME280;11050;52.222;20.916;2023-03-20T08:09:05;100043.75;;;12.84;57.22
21779;BME280;11050;52.222;20.916;2023-03-20T08:11:31;100045.94;;;12.87;56.97
21779;BME280;11050;52.222;20.916;2023-03-20T08:13:57;100050.91;;;12.95;56.86
21779;BME280;11050;52.222;20.916;2023-03-20T08:16:23;100056.44;;;13.05;56.52
21779;BME280;11050;52.222;20.916;2023-03-20T08:18:49;100042.94;;;13.08;56.97
21779;BME280;11050;52.222;20.916;2023-03-20T08:21:18;100041.28;;;13.07;56.96
21779;BME280;11050;52.222;20.916;2023-03-20T08:23:44;100039.34;;;13.13;57.32
21779;BME280;11050;52.222;20.916;2023-03-20T08:26:10;100054.50;;;13.25;56.52
21779;BME280;11050;52.222;20.916;2023-03-20T08:28:36;100055.06;;;13.27;56.22
21779;BME280;11050;52.222;20.916;2023-03-20T08:31:06;100055.34;;;13.36;56.35
21779;BME280;11050;52.222;20.916;2023-03-20T08:33:32;100043.44;;;13.51;55.38
21779;BME280;11050;52.222;20.916;2023-03-20T08:35:58;100046.19;;;13.61;55.56
21779;BME280;11050;52.222;20.916;2023-03-20T08:38:25;100047.22;;;13.75;54.46
21779;BME280;11050;52.222;20.916;2023-03-20T08:40:51;100046.06;;;13.96;54.63
21779;BME280;11050;52.222;20.916;2023-03-20T08:43:17;100046.03;;;14.06;54.06
21779;BME280;11050;52.222;20.916;2023-03-20T08:45:43;100050.38;;;14.27;53.41
21779;BME280;11050;52.222;20.916;2023-03-20T08:48:09;100045.91;;;14.31;52.54
21779;BME280;11050;52.222;20.916;2023-03-20T08:50:36;100047.78;;;14.46;53.25
21779;BME280;11050;52.222;20.916;2023-03-20T08:53:03;100054.03;;;14.61;51.69
21779;BME280;11050;52.222;20.916;2023-03-20T08:55:29;100057.28;;;14.73;51.26
21779;BME280;11050;52.222;20.916;2023-03-20T08:57:55;100048.88;;;14.88;49.94
21779;BME280;11050;52.222;20.916;2023-03-20T09:00:22;100048.13;;;15.11;48.94
21779;BME280;11050;52.222;20.916;2023-03-20T09:02:49;100051.31;;;15.29;48.01
21779;BME280;11050;52.222;20.916;2023-03-20T09:05:15;100037.22;;;15.54;47.35
21779;BME280;11050;52.222;20.916;2023-03-20T09:07:41;100054.50;;;15.74;47.21
21779;BME280;11050;52.222;20.916;2023-03-20T09:10:09;100047.28;;;15.97;45.19
21779;BME280;11050;52.222;20.916;2023-03-20T09:12:35;100045.31;;;16.21;45.53
21779;BME280;11050;52.222;20.916;2023-03-20T09:15:02;100052.13;;;16.52;45.36
21779;BME280;11050;52.222;20.916;2023-03-20T09:17:29;100043.81;;;16.71;44.27
21779;BME280;11050;52.222;20.916;2023-03-20T09:19:56;100043.19;;;16.92;43.42
21779;BME280;11050;52.222;20.916;2023-03-20T09:22:22;100044.31;;;17.24;42.79
21779;BME280;11050;52.222;20.916;2023-03-20T09:24:48;100046.09;;;17.65;41.65
21779;BME280;11050;52.222;20.916;2023-03-20T09:27:14;100045.09;;;17.88;40.79
21779;BME280;11050;52.222;20.916;2023-03-20T09:29:43;100035.03;;;18.06;40.44
21779;BME280;11050;52.222;20.916;2023-03-20T09:32:14;100035.00;;;18.20;39.52
21779;BME280;11050;52.222;20.916;2023-03-20T09:34:40;100033.53;;;18.36;38.53
21779;BME280;11050;52.222;20.916;2023-03-20T09:37:06;100035.69;;;18.66;38.09
21779;BME280;11050;52.222;20.916;2023-03-20T09:39:33;100032.25;;;18.69;37.67
21779;BME280;11050;52.222;20.916;2023-03-20T09:47:53;100037.78;;;18.82;37.69
21779;BME280;11050;52.222;20.916;2023-03-20T09:50:42;100035.56;;;18.93;37.18
21779;BME280;11050;52.222;20.916;2023-03-20T09:53:26;100042.47;;;18.96;36.86
21779;BME280;11050;52.222;20.916;2023-03-20T09:55:56;100035.44;;;18.76;37.66
21779;BME280;11050;52.222;20.916;2023-03-20T09:58:31;100047.41;;;18.63;38.37
21779;BME280;11050;52.222;20.916;2023-03-20T10:01:02;100041.47;;;18.42;38.50
21779;BME280;11050;52.222;20.916;2023-03-20T10:03:58;100037.91;;;18.42;39.35
21779;BME280;11050;52.222;20.916;2023-03-20T10:06:25;100038.34;;;18.57;38.61
21779;BME280;11050;52.222;20.916;2023-03-20T10:08:51;100032.69;;;18.62;38.62
21779;BME280;11050;52.222;20.916;2023-03-20T10:20:38;100046.03;;;18.38;40.33
21779;BME280;11050;52.222;20.916;2023-03-20T10:23:41;100045.09;;;18.29;40.87
21779;BME280;11050;52.222;20.916;2023-03-20T10:26:14;100038.81;;;18.10;41.92
21779;BME280;11050;52.222;20.916;2023-03-20T10:28:59;100038.53;;;18.12;42.58
21779;BME280;11050;52.222;20.916;2023-03-20T10:31:42;100036.53;;;18.26;42.52
21779;BME280;11050;52.222;20.916;2023-03-20T10:34:23;100031.69;;;18.31;42.44
21779;BME280;11050;52.222;20.916;2023-03-20T10:42:47;100023.69;;;19.01;41.82
21779;BME280;11050;52.222;20.916;2023-03-20T10:45:32;100027.56;;;19.14;41.64
21779;BME280;11050;52.222;20.916;2023-03-20T10:48:06;100021.34;;;19.39;40.63
21779;BME280;11050;52.222;20.916;2023-03-20T10:50:58;100029.09;;;19.42;39.94
21779;BME280;11050;52.222;20.916;2023-03-20T10:53:57;100037.03;;;19.57;39.61
21779;BME280;11050;52.222;20.916;2023-03-20T10:56:59;100030.91;;;19.46;37.58
21779;BME280;11050;52.222;20.916;2023-03-20T10:59:38;100039.13;;;19.29;39.01
21779;BME280;11050;52.222;20.916;2023-03-20T11:02:14;100039.63;;;19.09;40.91
21779;BME280;11050;52.222;20.916;2023-03-20T11:04:40;100029.09;;;18.84;42.18
21779;BME280;11050;52.222;20.916;2023-03-20T11:07:34;100029.78;;;18.67;42.45
21779;BME280;11050;52.222;20.916;2023-03-20T11:10:09;100024.84;;;18.64;41.85
21779;BME280;11050;52.222;20.916;2023-03-20T11:12:45;100016.66;;;18.81;41.40
21779;BME280;11050;52.222;20.916;2023-03-20T11:15:29;100023.50;;;18.98;41.36
21779;BME280;11050;52.222;20.916;2023-03-20T11:17:59;100019.59;;;18.99;40.52
21779;BME280;11050;52.222;20.916;2023-03-20T11:20:33;100012.66;;;19.18;41.14
21779;BME280;11050;52.222;20.916;2023-03-20T11:23:05;100018.06;;;19.67;39.67
21779;BME280;11050;52.222;20.916;2023-03-20T11:25:59;100017.09;;;19.72;38.35
21779;BME280;11050;52.222;20.916;2023-03-20T11:31:24;99996.63;;;19.46;38.22
21779;BME280;11050;52.222;20.916;2023-03-20T11:36:31;99990.28;;;20.66;36.79
21779;BME280;11050;52.222;20.916;2023-03-20T11:39:15;99999.81;;;21.17;35.02
21779;BME280;11050;52.222;20.916;2023-03-20T11:41:49;100000.47;;;21.05;34.39
21779;BME280;11050;52.222;20.916;2023-03-20T11:44:29;99996.03;;;20.96;35.20
21779;BME280;11050;52.222;20.916;2023-03-20T11:46:59;99991.56;;;21.20;35.27
21779;BME280;11050;52.222;20.916;2023-03-20T11:49:29;99997.09;;;21.46;34.52
21779;BME280;11050;52.222;20.916;2023-03-20T11:52:01;99991.44;;;21.63;33.68
21779;BME280;11050;52.222;20.916;2023-03-20T11:54:29;99997.69;;;21.68;33.76
21779;BME280;11050;52.222;20.916;2023-03-20T11:56:59;99995.63;;;21.48;34.17
21779;BME280;11050;52.222;20.916;2023-03-20T11:59:34;99994.28;;;21.54;35.42
21779;BME280;11050;52.222;20.916;2023-03-20T12:02:18;99986.44;;;21.94;34.35
21779;BME280;11050;52.222;20.916;2023-03-20T12:04:45;99984.13;;;22.46;33.65
21779;BME280;11050;52.222;20.916;2023-03-20T12:07:31;99986.19;;;22.99;32.82
21779;BME280;11050;52.222;20.916;2023-03-20T12:10:10;99988.22;;;23.31;32.08
21779;BME280;11050;52.222;20.916;2023-03-20T12:13:00;99988.13;;;23.39;31.81
21779;BME280;11050;52.222;20.916;2023-03-20T12:15:33;99987.94;;;23.24;31.77
21779;BME280;11050;52.222;20.916;2023-03-20T12:18:24;99997.50;;;22.70;32.07
21779;BME280;11050;52.222;20.916;2023-03-20T12:22:13;99980.53;;;21.87;33.77
21779;BME280;11050;52.222;20.916;2023-03-20T12:24:48;99981.41;;;21.07;35.86
21779;BME280;11050;52.222;20.916;2023-03-20T12:27:43;99972.00;;;20.35;37.97
21779;BME280;11050;52.222;20.916;2023-03-20T12:30:25;99969.53;;;19.77;39.20
21779;BME280;11050;52.222;20.916;2023-03-20T12:33:24;99981.88;;;19.45;39.68
21779;BME280;11050;52.222;20.916;2023-03-20T12:35:55;99975.94;;;19.16;40.04
21779;BME280;11050;52.222;20.916;2023-03-20T12:38:28;99985.88;;;18.86;41.41
21779;BME280;11050;52.222;20.916;2023-03-20T12:41:21;99975.31;;;18.53;42.44
21779;BME280;11050;52.222;20.916;2023-03-20T12:50:24;99963.44;;;18.12;45.10
21779;BME280;11050;52.222;20.916;2023-03-20T12:53:23;99975.34;;;18.12;46.21
21779;BME280;11050;52.222;20.916;2023-03-20T12:59:06;99966.91;;;18.66;45.74
21779;BME280;11050;52.222;20.916;2023-03-20T13:01:51;99970.56;;;18.98;44.75
21779;BME280;11050;52.222;20.916;2023-03-20T13:04:51;99965.63;;;19.17;45.05
21779;BME280;11050;52.222;20.916;2023-03-20T13:10:19;99963.41;;;19.05;45.91
21779;BME280;11050;52.222;20.916;2023-03-20T13:13:10;99960.13;;;18.81;46.94
21779;BME280;11050;52.222;20.916;2023-03-20T13:16:09;99961.00;;;18.32;49.54
21779;BME280;11050;52.222;20.916;2023-03-20T13:19:10;99954.91;;;17.94;52.34
21779;BME280;11050;52.222;20.916;2023-03-20T13:24:32;99954.88;;;17.40;55.71
21779;BME280;11050;52.222;20.916;2023-03-20T13:27:26;99949.19;;;17.32;56.91
21779;BME280;11050;52.222;20.916;2023-03-20T13:33:09;99941.84;;;17.08;60.77
21779;BME280;11050;52.222;20.916;2023-03-20T13:39:07;99949.72;;;16.88;62.58
21779;BME280;11050;52.222;20.916;2023-03-20T13:41:37;99951.63;;;16.74;64.58
21779;BME280;11050;52.222;20.916;2023-03-20T13:44:05;99953.56;;;16.73;64.68
21779;BME280;11050;52.222;20.916;2023-03-20T13:46:46;99942.13;;;16.61;65.50
21779;BME280;11050;52.222;20.916;2023-03-20T13:49:42;99950.63;;;16.51;67.12
21779;BME280;11050;52.222;20.916;2023-03-20T13:55:24;99957.13;;;16.42;68.57
21779;BME280;11050;52.222;20.916;2023-03-20T14:03:52;99928.69;;;15.94;74.28
21779;BME280;11050;52.222;20.916;2023-03-20T14:08:58;99943.59;;;15.98;75.30
21779;BME280;11050;52.222;20.916;2023-03-20T14:14:12;99937.44;;;16.01;76.44
21779;BME280;11050;52.222;20.916;2023-03-20T14:16:40;99935.81;;;16.00;77.12
21779;BME280;11050;52.222;20.916;2023-03-20T14:19:18;99928.63;;;15.99;78.08
21779;BME280;11050;52.222;20.916;2023-03-20T14:21:55;99938.16;;;16.11;77.23
21779;BME280;11050;52.222;20.916;2023-03-20T14:24:25;99956.66;;;16.16;77.44
21779;BME280;11050;52.222;20.916;2023-03-20T14:26:56;99944.97;;;16.19;75.67
21779;BME280;11050;52.222;20.916;2023-03-20T14:37:53;99947.63;;;15.87;80.22
21779;BME280;11050;52.222;20.916;2023-03-20T14:40:30;99948.06;;;15.75;81.76
21779;BME280;11050;52.222;20.916;2023-03-20T14:46:04;99947.03;;;15.48;87.58
21779;BME280;11050;52.222;20.916;2023-03-20T14:48:43;99942.03;;;15.21;90.63
21779;BME280;11050;52.222;20.916;2023-03-20T14:54:28;99942.78;;;14.69;97.54
21779;BME280;11050;52.222;20.916;2023-03-20T14:57:07;99952.34;;;14.48;99.21
21779;BME280;11050;52.222;20.916;2023-03-20T14:59:34;99950.06;;;14.21;100.00
21779;BME280;11050;52.222;20.916;2023-03-20T15:02:01;99953.41;;;14.08;100.00
21779;BME280;11050;52.222;20.916;2023-03-20T15:07:16;99956.28;;;13.93;100.00